This is the latest recevied weather packets stored in our database for station/object OK1FCB-1. If no packets are shown the sender has not sent any weather packets the latest 10 day(s).
| Time | Temp. | Humidity | Pressure | Rain* | Wind** | Luminosity | Snow |
|---|---|---|---|---|---|---|---|
| 1788438977 | 24.44° C | 52% | 1023.6 hPa | - | - | - | - |
| 1788431797 | 25° C | 52% | 1024.7 hPa | - | - | - | - |
| 1788430001 | 25.56° C | 54% | 1024.8 hPa | - | - | - | - |
| 1788426410 | 26.11° C | 53% | 1025 hPa | - | - | - | - |
| 1788421914 | 22.78° C | 62% | 1025.3 hPa | - | - | - | - |
| 1788421015 | 22.22° C | 65% | 1025.3 hPa | - | - | - | - |
| 1788420116 | 21.11° C | 70% | 1025.4 hPa | - | - | - | - |
| 1788419216 | 19.44° C | 76% | 1025.2 hPa | - | - | - | - |
| 1788418316 | 17.78° C | 80% | 1025.2 hPa | - | - | - | - |
| 1788417416 | 16.11° C | 79% | 1025.4 hPa | - | - | - | - |
| 1788415618 | 13.33° C | 84% | 1025.2 hPa | - | - | - | - |
| 1788414720 | 13.33° C | 84% | 1025.2 hPa | - | - | - | - |
| 1788411125 | 11.11° C | 87% | 1024.9 hPa | - | - | - | - |
| 1788410227 | 10.56° C | 87% | 1024.8 hPa | - | - | - | - |
| 1788409329 | 10.56° C | 87% | 1024.7 hPa | - | - | - | - |
| 1788408432 | 10.56° C | 86% | 1024.7 hPa | - | - | - | - |
| 1788407534 | 10.56° C | 86% | 1024.7 hPa | - | - | - | - |
| 1788406637 | 11.11° C | 86% | 1024.6 hPa | - | - | - | - |
| 1788405739 | 11.11° C | 85% | 1024.7 hPa | - | - | - | - |
| 1788404842 | 11.67° C | 86% | 1024.7 hPa | - | - | - | - |
| 1788403046 | 11.67° C | 86% | 1024.7 hPa | - | - | - | - |
| 1788400353 | 11.67° C | 86% | 1024.8 hPa | - | - | - | - |
| 1788378811 | 16.67° C | 69% | 1024.8 hPa | - | - | - | - |
| 1788376117 | 15.56° C | 68% | 1023.8 hPa | - | - | - | - |
| 1788372528 | 17.78° C | 61% | 1023.6 hPa | - | - | - | - |
* Rain since midnight (hover to see other rain measurements)
** Current wind speed in m/s (hover to see current wind gust speed)